createdAt,value
2019-05-05T00:03:40.686Z,13.49
2019-05-05T00:08:45.762Z,13.36
2019-05-05T00:14:01.159Z,13.46
2019-05-05T00:19:06.067Z,13.68
2019-05-05T00:24:10.755Z,13.45
2019-05-05T00:29:15.441Z,13.63
2019-05-05T00:34:20.150Z,13.66
2019-05-05T00:39:25.511Z,13.74
2019-05-05T00:44:30.243Z,13.78
2019-05-05T00:49:45.528Z,13.71
2019-05-05T00:54:44.929Z,13.82
2019-05-05T00:59:48.952Z,13.79
2019-05-05T01:05:04.505Z,13.40
2019-05-05T01:10:09.588Z,13.21
2019-05-05T01:15:15.110Z,12.84
2019-05-05T01:20:19.762Z,12.56
2019-05-05T01:25:25.457Z,12.42
2019-05-05T01:30:35.061Z,12.45
2019-05-05T01:35:39.860Z,12.44
2019-05-05T01:40:52.063Z,12.60
2019-05-05T01:45:57.146Z,12.46
2019-05-05T01:51:01.777Z,12.37
2019-05-05T01:56:06.676Z,12.43
2019-05-05T02:01:11.383Z,12.47
2019-05-05T02:06:15.998Z,12.50
2019-05-05T02:11:24.519Z,12.58
2019-05-05T02:16:28.642Z,12.71
2019-05-05T02:21:35.195Z,12.72
2019-05-05T02:26:39.620Z,12.73
2019-05-05T02:31:45.805Z,12.67
2019-05-05T02:36:51.622Z,12.51
2019-05-05T02:41:58.285Z,12.48
2019-05-05T02:47:10.197Z,12.63
2019-05-05T02:52:15.841Z,12.55
2019-05-05T02:57:23.936Z,12.73
2019-05-05T03:02:30.232Z,12.77
2019-05-05T03:07:36.103Z,12.50
2019-05-05T03:12:41.136Z,12.33
2019-05-05T03:17:46.470Z,12.31
2019-05-05T03:22:51.124Z,12.27
2019-05-05T03:27:55.830Z,12.42
2019-05-05T03:33:00.620Z,12.35
2019-05-05T03:38:05.232Z,12.35
2019-05-05T03:43:11.576Z,12.33
2019-05-05T03:48:16.309Z,12.46
2019-05-05T03:53:21.098Z,12.41
2019-05-05T03:58:26.911Z,12.35
2019-05-05T04:03:31.472Z,12.29
2019-05-05T04:08:38.196Z,12.37
2019-05-05T04:13:44.778Z,12.36
2019-05-05T04:18:51.038Z,12.49
2019-05-05T04:23:55.691Z,12.65
2019-05-05T04:29:02.440Z,12.69
2019-05-05T04:34:06.546Z,12.53
2019-05-05T04:39:11.306Z,12.87
2019-05-05T04:44:17.940Z,13.21
2019-05-05T04:49:26.798Z,13.40
2019-05-05T04:54:38.947Z,13.26
2019-05-05T04:59:44.428Z,13.43
2019-05-05T05:04:50.842Z,13.65
2019-05-05T05:09:55.462Z,13.84
2019-05-05T05:14:59.969Z,14.19
2019-05-05T05:20:06.704Z,14.17
2019-05-05T05:25:13.454Z,14.22
2019-05-05T05:30:17.937Z,13.85
2019-05-05T05:35:24.401Z,13.41
2019-05-05T05:40:36.063Z,13.30
2019-05-05T05:45:46.907Z,13.07
2019-05-05T05:50:55.549Z,13.11
2019-05-05T05:56:00.046Z,13.08
2019-05-05T06:01:06.223Z,13.03
2019-05-05T06:06:10.960Z,12.96
2019-05-05T06:11:15.723Z,12.82
2019-05-05T06:16:20.347Z,12.85
2019-05-05T06:21:24.938Z,13.26
2019-05-05T06:26:29.631Z,13.54
2019-05-05T06:31:34.405Z,13.67
2019-05-05T06:36:39.030Z,13.84
2019-05-05T06:41:45.189Z,13.54
2019-05-05T06:47:09.607Z,13.76
2019-05-05T06:52:14.387Z,13.79
2019-05-05T06:57:18.929Z,13.81
2019-05-05T07:02:23.886Z,14.20
2019-05-05T07:07:28.492Z,14.09
2019-05-05T07:12:34.700Z,14.15
2019-05-05T07:17:39.438Z,14.54
2019-05-05T07:22:58.439Z,15.00
2019-05-05T07:27:50.513Z,15.09
2019-05-05T07:32:55.166Z,15.50
2019-05-05T07:37:59.698Z,15.71
2019-05-05T07:43:04.637Z,16.36
2019-05-05T07:48:09.336Z,16.91
2019-05-05T07:53:17.516Z,16.77
2019-05-05T07:58:20.286Z,16.81
2019-05-05T08:03:24.891Z,17.20
2019-05-05T08:08:29.518Z,17.76
2019-05-05T08:13:34.136Z,17.51
2019-05-05T08:18:40.508Z,18.28
2019-05-05T08:23:46.687Z,18.61
2019-05-05T08:29:07.843Z,17.78
2019-05-05T08:34:14.253Z,18.38
2019-05-05T08:39:21.474Z,18.54
2019-05-05T08:44:25.367Z,18.01
2019-05-05T08:49:30.109Z,18.32
2019-05-05T08:54:34.774Z,18.58
2019-05-05T08:59:39.400Z,19.17
2019-05-05T09:04:44.651Z,21.20
2019-05-05T09:09:49.405Z,21.83
2019-05-05T09:14:54.107Z,20.67
2019-05-05T09:19:58.786Z,19.80
2019-05-05T09:25:13.553Z,20.74
2019-05-05T09:30:21.165Z,20.15
2019-05-05T09:35:25.780Z,20.28
2019-05-05T09:40:38.658Z,19.07
2019-05-05T09:45:44.177Z,20.24
2019-05-05T09:50:49.999Z,19.01
2019-05-05T09:55:54.819Z,19.06
2019-05-05T10:00:59.369Z,18.58
2019-05-05T10:06:05.011Z,18.84
2019-05-05T10:11:09.740Z,19.11
2019-05-05T10:16:14.494Z,19.50
2019-05-05T10:21:19.143Z,19.97
2019-05-05T10:26:23.945Z,19.75
2019-05-05T10:31:28.513Z,20.04
2019-05-05T10:36:33.700Z,20.00
2019-05-05T10:41:38.495Z,19.55
2019-05-05T10:46:43.194Z,19.86
2019-05-05T10:51:47.970Z,20.36
2019-05-05T10:56:52.855Z,20.62
2019-05-05T11:01:57.478Z,20.28
2019-05-05T11:07:04.225Z,19.48
2019-05-05T11:12:08.470Z,19.48
2019-05-05T11:17:14.420Z,18.71
2019-05-05T11:22:19.183Z,18.66
2019-05-05T11:27:24.176Z,18.84
2019-05-05T11:32:46.656Z,19.21
2019-05-05T11:37:51.309Z,19.57
2019-05-05T11:42:55.951Z,20.23
2019-05-05T11:48:00.517Z,20.48
2019-05-05T11:53:05.223Z,20.45
2019-05-05T11:58:09.853Z,20.72
2019-05-05T12:03:14.612Z,20.38
2019-05-05T12:08:19.212Z,21.08
2019-05-05T12:13:23.604Z,20.91
2019-05-05T12:18:28.344Z,21.83
2019-05-05T12:23:33.933Z,21.39
2019-05-05T12:28:41.154Z,21.91
2019-05-05T12:33:45.755Z,21.57
2019-05-05T12:38:50.375Z,21.52
2019-05-05T12:43:55.162Z,20.98
2019-05-05T12:49:01.622Z,20.26
2019-05-05T12:54:06.338Z,19.89
2019-05-05T12:59:14.254Z,19.72
2019-05-05T13:04:19.017Z,19.72
2019-05-05T13:09:24.492Z,19.99
2019-05-05T13:14:30.671Z,20.31
2019-05-05T13:19:39.841Z,20.86
2019-05-05T13:24:47.040Z,20.78
2019-05-05T13:29:53.522Z,20.55
2019-05-05T13:34:58.015Z,20.46
2019-05-05T13:40:04.356Z,20.52
2019-05-05T13:45:20.074Z,20.11
2019-05-05T13:50:29.819Z,19.68
2019-05-05T13:55:34.797Z,19.95
2019-05-05T14:00:39.471Z,19.79
2019-05-05T14:05:44.207Z,19.95
2019-05-05T14:10:49.115Z,20.02
2019-05-05T14:15:54.509Z,19.65
2019-05-05T14:21:00.754Z,19.70
2019-05-05T14:26:05.454Z,19.53
2019-05-05T14:31:13.942Z,19.63
2019-05-05T14:36:33.409Z,19.42
2019-05-05T14:41:38.063Z,19.48
2019-05-05T14:46:44.594Z,19.26
2019-05-05T14:51:51.563Z,19.24
2019-05-05T14:56:55.992Z,19.36
2019-05-05T15:02:00.686Z,19.46
2019-05-05T15:07:14.421Z,19.49
2019-05-05T15:12:23.849Z,18.84
2019-05-05T15:17:28.416Z,18.90
2019-05-05T15:22:34.372Z,18.76
2019-05-05T15:27:39.059Z,18.78
2019-05-05T15:32:43.904Z,18.69
2019-05-05T15:37:48.530Z,18.52
2019-05-05T15:42:54.448Z,18.53
2019-05-05T15:47:59.187Z,18.28
2019-05-05T15:53:03.964Z,18.42
2019-05-05T15:58:08.492Z,18.18
2019-05-05T16:03:13.631Z,18.22
2019-05-05T16:08:18.454Z,18.39
2019-05-05T16:13:23.205Z,18.34
2019-05-05T16:18:32.923Z,18.49
2019-05-05T16:23:39.137Z,18.47
2019-05-05T16:28:45.623Z,18.29
2019-05-05T16:33:50.388Z,17.96
2019-05-05T16:38:55.332Z,17.89
2019-05-05T16:44:00.131Z,17.76
2019-05-05T16:49:04.764Z,17.80
2019-05-05T16:54:10.995Z,17.66
2019-05-05T16:59:16.536Z,17.75
2019-05-05T17:04:21.400Z,17.36
2019-05-05T17:09:26.017Z,17.39
2019-05-05T17:14:33.767Z,17.07
2019-05-05T17:19:44.299Z,16.57
2019-05-05T17:24:48.412Z,16.29
2019-05-05T17:29:53.636Z,16.09
2019-05-05T17:34:58.389Z,15.83
2019-05-05T17:40:04.704Z,15.67
2019-05-05T17:45:15.215Z,15.73
2019-05-05T17:50:23.768Z,15.72
2019-05-05T17:55:29.507Z,15.77
2019-05-05T18:00:35.839Z,15.65
2019-05-05T18:05:58.313Z,15.56
2019-05-05T18:11:04.533Z,15.56
2019-05-05T18:16:09.182Z,15.62
2019-05-05T18:21:14.310Z,15.66
2019-05-05T18:26:19.069Z,15.81
2019-05-05T18:31:24.250Z,15.87
2019-05-05T18:36:29.114Z,15.94
2019-05-05T18:41:35.376Z,16.04
2019-05-05T18:46:40.239Z,16.05
2019-05-05T18:51:45.838Z,16.05
2019-05-05T18:56:50.467Z,16.02
2019-05-05T19:02:08.732Z,15.83
2019-05-05T19:07:15.977Z,15.73
2019-05-05T19:12:20.606Z,15.40
2019-05-05T19:17:25.215Z,15.34
2019-05-05T19:22:30.016Z,15.05
2019-05-05T19:27:34.782Z,15.07
2019-05-05T19:32:43.717Z,15.07
2019-05-05T19:37:48.551Z,15.18
2019-05-05T19:42:53.863Z,15.17
2019-05-05T19:47:58.714Z,15.29
2019-05-05T19:53:04.572Z,14.99
2019-05-05T19:58:09.240Z,14.96
2019-05-05T20:03:14.379Z,15.04
2019-05-05T20:08:19.135Z,15.11
2019-05-05T20:13:24.198Z,15.19
2019-05-05T20:18:28.974Z,15.24
2019-05-05T20:23:34.077Z,15.33
2019-05-05T20:28:39.824Z,15.28
2019-05-05T20:34:03.953Z,15.16
2019-05-05T20:39:08.601Z,15.06
2019-05-05T20:44:14.713Z,15.04
2019-05-05T20:49:19.258Z,14.98
2019-05-05T20:54:23.831Z,15.01
2019-05-05T20:59:31.015Z,15.11
2019-05-05T21:04:34.790Z,15.15
2019-05-05T21:09:39.346Z,15.19
2019-05-05T21:14:44.659Z,15.30
2019-05-05T21:19:49.341Z,15.21
2019-05-05T21:24:54.369Z,14.86
2019-05-05T21:30:00.154Z,14.70
2019-05-05T21:35:05.915Z,14.65
2019-05-05T21:40:11.393Z,14.54
2019-05-05T21:45:16.019Z,14.70
2019-05-05T21:50:43.618Z,14.70
2019-05-05T21:55:55.718Z,14.65
2019-05-05T22:01:04.351Z,14.59
2019-05-05T22:06:10.261Z,14.66
2019-05-05T22:11:14.886Z,14.77
2019-05-05T22:16:19.724Z,14.65
2019-05-05T22:21:26.029Z,14.62
2019-05-05T22:26:30.663Z,14.65
2019-05-05T22:31:35.499Z,14.69
2019-05-05T22:36:42.094Z,14.73
2019-05-05T22:41:46.702Z,14.81
2019-05-05T22:46:53.663Z,14.68
2019-05-05T22:51:57.704Z,14.75
2019-05-05T22:57:04.443Z,14.86
2019-05-05T23:02:09.743Z,14.73
2019-05-05T23:07:15.948Z,14.72
2019-05-05T23:12:20.506Z,14.60
2019-05-05T23:17:35.578Z,14.75
2019-05-05T23:22:57.478Z,14.78
2019-05-05T23:28:04.041Z,14.86
2019-05-05T23:33:08.384Z,14.93
2019-05-05T23:38:14.345Z,14.69
2019-05-05T23:43:20.123Z,14.74
2019-05-05T23:48:26.247Z,14.64
2019-05-05T23:53:30.811Z,14.80
2019-05-05T23:58:35.374Z,14.76
